WJA526 CYLW-CYEG
Flight info
| Callsign | WJA526 |
|---|---|
| Flight time | 0h 55m |
| Altitude | 37000 |
| Route | ENDBY3 ENDBY DCT ROMRA Q949 ELLKS ELLKS3 |
| Aircraft | B737/M-SDE2E3FGHIRWXY/LB1 |
Departure
| Time | 2026-04-29 16:04 |
|---|---|
| Airport | Kelowna International Airport (CYLW) |
Arrival
| Time | 2026-04-29 16:59 |
|---|---|
| Airport | Edmonton International Airport (CYEG) |
| Time | Latitude | Longitude | Altitude | Speed | Heading |
|---|---|---|---|---|---|
| 2026-04-29 15:44 | 49.95101 | -119.38011 | 1419 ft | 0 kts | 289° |
| 2026-04-29 15:56 | 49.95095 | -119.37984 | 1419 ft | 4 kts | 289° |
| 2026-04-29 15:56 | 49.95086 | -119.37946 | 1419 ft | 2 kts | 289° |
| 2026-04-29 15:56 | 49.95082 | -119.37918 | 1419 ft | 4 kts | 237° |
| 2026-04-29 15:56 | 49.95098 | -119.37909 | 1419 ft | 4 kts | 175° |
| 2026-04-29 15:57 | 49.95114 | -119.37911 | 1419 ft | 0 kts | 175° |
| 2026-04-29 15:59 | 49.95101 | -119.37909 | 1419 ft | 4 kts | 175° |
| 2026-04-29 16:00 | 49.95066 | -119.37904 | 1419 ft | 6 kts | 175° |
| 2026-04-29 16:00 | 49.95024 | -119.37899 | 1419 ft | 6 kts | 175° |
| 2026-04-29 16:00 | 49.94984 | -119.37893 | 1419 ft | 6 kts | 171° |
| 2026-04-29 16:00 | 49.94962 | -119.37846 | 1419 ft | 6 kts | 107° |
| 2026-04-29 16:01 | 49.94928 | -119.37824 | 1419 ft | 6 kts | 176° |
| 2026-04-29 16:01 | 49.94884 | -119.37819 | 1420 ft | 8 kts | 175° |
| 2026-04-29 16:01 | 49.94824 | -119.37806 | 1420 ft | 9 kts | 161° |
| 2026-04-29 16:01 | 49.94774 | -119.37744 | 1420 ft | 9 kts | 129° |
| 2026-04-29 16:02 | 49.94732 | -119.37671 | 1420 ft | 9 kts | 144° |
| 2026-04-29 16:02 | 49.94670 | -119.37650 | 1420 ft | 9 kts | 174° |
| 2026-04-29 16:02 | 49.94607 | -119.37674 | 1420 ft | 9 kts | 183° |
| 2026-04-29 16:02 | 49.94557 | -119.37658 | 1419 ft | 6 kts | 128° |
| 2026-04-29 16:03 | 49.94587 | -119.37635 | 1419 ft | 6 kts | 353° |
| 2026-04-29 16:03 | 49.94627 | -119.37641 | 1419 ft | 6 kts | 355° |
| 2026-04-29 16:03 | 49.94668 | -119.37647 | 1420 ft | 7 kts | 354° |
| 2026-04-29 16:03 | 49.94815 | -119.37667 | 1421 ft | 52 kts | 355° |
| 2026-04-29 16:04 | 49.95430 | -119.37753 | 1416 ft | 123 kts | 355° |
| 2026-04-29 16:04 | 49.96447 | -119.37907 | 1570 ft | 163 kts | 353° |
| 2026-04-29 16:04 | 49.97612 | -119.38134 | 2214 ft | 175 kts | 353° |
| 2026-04-29 16:04 | 49.98835 | -119.38373 | 3015 ft | 178 kts | 352° |
| 2026-04-29 16:05 | 50.00086 | -119.38619 | 3731 ft | 187 kts | 353° |
| 2026-04-29 16:05 | 50.01404 | -119.38964 | 4246 ft | 203 kts | 343° |
| 2026-04-29 16:05 | 50.02751 | -119.39734 | 4795 ft | 209 kts | 340° |
| 2026-04-29 16:05 | 50.04200 | -119.40513 | 5140 ft | 236 kts | 342° |
| 2026-04-29 16:06 | 50.05838 | -119.41350 | 5723 ft | 253 kts | 342° |
| 2026-04-29 16:06 | 50.07530 | -119.42208 | 6603 ft | 261 kts | 342° |
| 2026-04-29 16:06 | 50.09264 | -119.43106 | 7531 ft | 262 kts | 342° |
| 2026-04-29 16:06 | 50.10970 | -119.44009 | 8625 ft | 251 kts | 342° |
| 2026-04-29 16:07 | 50.12620 | -119.44878 | 8996 ft | 248 kts | 342° |
| 2026-04-29 16:07 | 50.13699 | -119.45438 | 9350 ft | 246 kts | 343° |
| 2026-04-29 16:07 | 50.15920 | -119.45590 | 10573 ft | 247 kts | 19° |
| 2026-04-29 16:07 | 50.17376 | -119.44180 | 11422 ft | 251 kts | 46° |
| 2026-04-29 16:08 | 50.18257 | -119.41828 | 12303 ft | 257 kts | 73° |
| 2026-04-29 16:08 | 50.18934 | -119.39260 | 13161 ft | 259 kts | 49° |
| 2026-04-29 16:08 | 50.20337 | -119.37513 | 14087 ft | 260 kts | 32° |
| 2026-04-29 16:08 | 50.21845 | -119.35916 | 14922 ft | 264 kts | 34° |
| 2026-04-29 16:09 | 50.23341 | -119.34226 | 15803 ft | 267 kts | 35° |
| 2026-04-29 16:09 | 50.24813 | -119.32509 | 16704 ft | 269 kts | 35° |
| 2026-04-29 16:09 | 50.26471 | -119.31158 | 17514 ft | 273 kts | 13° |
| 2026-04-29 16:09 | 50.28419 | -119.30649 | 17836 ft | 298 kts | 6° |
| 2026-04-29 16:10 | 50.30573 | -119.30323 | 18062 ft | 324 kts | 5° |
| 2026-04-29 16:10 | 50.32907 | -119.30000 | 18285 ft | 349 kts | 5° |
| 2026-04-29 16:10 | 50.35371 | -119.29636 | 18840 ft | 361 kts | 5° |
| 2026-04-29 16:10 | 50.37884 | -119.29237 | 19630 ft | 364 kts | 5° |
| 2026-04-29 16:11 | 50.40403 | -119.28823 | 20506 ft | 364 kts | 5° |
| 2026-04-29 16:11 | 50.42896 | -119.28376 | 21315 ft | 367 kts | 9° |
| 2026-04-29 16:11 | 50.45297 | -119.26962 | 22040 ft | 375 kts | 31° |
| 2026-04-29 16:11 | 50.47312 | -119.24339 | 22844 ft | 381 kts | 46° |
| 2026-04-29 16:12 | 50.48771 | -119.20820 | 23552 ft | 390 kts | 59° |
| 2026-04-29 16:12 | 50.49701 | -119.18412 | 23973 ft | 390 kts | 48° |
| 2026-04-29 16:12 | 50.52352 | -119.14539 | 24781 ft | 390 kts | 37° |
| 2026-04-29 16:12 | 50.54452 | -119.11813 | 25405 ft | 393 kts | 37° |
| 2026-04-29 16:13 | 50.56568 | -119.09057 | 26013 ft | 397 kts | 37° |
| 2026-04-29 16:13 | 50.58687 | -119.06253 | 26594 ft | 400 kts | 38° |
| 2026-04-29 16:13 | 50.60778 | -119.03446 | 27180 ft | 402 kts | 38° |
| 2026-04-29 16:13 | 50.62908 | -119.00562 | 27729 ft | 405 kts | 38° |
| 2026-04-29 16:14 | 50.65050 | -118.97650 | 28258 ft | 409 kts | 38° |
| 2026-04-29 16:14 | 50.67212 | -118.94710 | 28795 ft | 412 kts | 37° |
| 2026-04-29 16:14 | 50.69518 | -118.92037 | 29299 ft | 412 kts | 29° |
| 2026-04-29 16:14 | 50.71991 | -118.89722 | 29810 ft | 414 kts | 27° |
| 2026-04-29 16:15 | 50.74512 | -118.87498 | 30301 ft | 417 kts | 26° |
| 2026-04-29 16:15 | 50.77058 | -118.85280 | 30699 ft | 420 kts | 26° |
| 2026-04-29 16:15 | 50.79581 | -118.83064 | 31158 ft | 420 kts | 27° |
| 2026-04-29 16:15 | 50.82120 | -118.80803 | 31758 ft | 417 kts | 27° |
| 2026-04-29 16:16 | 50.84629 | -118.78542 | 32378 ft | 414 kts | 27° |
| 2026-04-29 16:16 | 50.87122 | -118.76274 | 32896 ft | 413 kts | 27° |
| 2026-04-29 16:16 | 50.89608 | -118.74002 | 33325 ft | 413 kts | 27° |
| 2026-04-29 16:16 | 50.92094 | -118.71721 | 33785 ft | 412 kts | 27° |
| 2026-04-29 16:17 | 50.94569 | -118.69444 | 34324 ft | 410 kts | 27° |
| 2026-04-29 16:17 | 50.97032 | -118.67175 | 34741 ft | 409 kts | 27° |
| 2026-04-29 16:17 | 50.99467 | -118.64930 | 35022 ft | 411 kts | 27° |
| 2026-04-29 16:17 | 51.01950 | -118.62639 | 35303 ft | 413 kts | 27° |
| 2026-04-29 16:18 | 51.04430 | -118.60347 | 35665 ft | 412 kts | 27° |
| 2026-04-29 16:18 | 51.06909 | -118.58053 | 35961 ft | 413 kts | 27° |
| 2026-04-29 16:18 | 51.09396 | -118.55749 | 36230 ft | 414 kts | 27° |
| 2026-04-29 16:18 | 51.11889 | -118.53437 | 36541 ft | 415 kts | 27° |
| 2026-04-29 16:19 | 51.14382 | -118.51121 | 36855 ft | 415 kts | 27° |
| 2026-04-29 16:19 | 51.16879 | -118.48799 | 37156 ft | 416 kts | 27° |
| 2026-04-29 16:19 | 51.19350 | -118.46499 | 37356 ft | 419 kts | 27° |
| 2026-04-29 16:20 | 51.24421 | -118.41770 | 37339 ft | 423 kts | 27° |
| 2026-04-29 16:20 | 51.29467 | -118.37048 | 37332 ft | 416 kts | 27° |
| 2026-04-29 16:21 | 51.34456 | -118.32368 | 37349 ft | 416 kts | 27° |
| 2026-04-29 16:21 | 51.39446 | -118.27677 | 37343 ft | 416 kts | 27° |
| 2026-04-29 16:22 | 51.44410 | -118.23000 | 37342 ft | 416 kts | 27° |
| 2026-04-29 16:22 | 51.49402 | -118.18283 | 37335 ft | 417 kts | 27° |
| 2026-04-29 16:23 | 51.54391 | -118.13557 | 37338 ft | 415 kts | 27° |
| 2026-04-29 16:23 | 51.59355 | -118.08842 | 37366 ft | 415 kts | 27° |
| 2026-04-29 16:24 | 51.64323 | -118.04113 | 37343 ft | 414 kts | 27° |
| 2026-04-29 16:24 | 51.69246 | -117.99412 | 37345 ft | 415 kts | 28° |
| 2026-04-29 16:25 | 51.74217 | -117.94654 | 37341 ft | 416 kts | 28° |
| 2026-04-29 16:25 | 51.79193 | -117.89880 | 37343 ft | 416 kts | 28° |
| 2026-04-29 16:26 | 51.84169 | -117.85092 | 37351 ft | 417 kts | 28° |
| 2026-04-29 16:26 | 51.89125 | -117.80311 | 37346 ft | 417 kts | 28° |
| 2026-04-29 16:27 | 51.94110 | -117.75489 | 37344 ft | 417 kts | 28° |
| 2026-04-29 16:27 | 51.99088 | -117.70663 | 37328 ft | 416 kts | 28° |
| 2026-04-29 16:28 | 52.03915 | -117.65473 | 37355 ft | 419 kts | 38° |
| 2026-04-29 16:28 | 52.07756 | -117.58399 | 37359 ft | 423 kts | 51° |
| 2026-04-29 16:29 | 52.11138 | -117.50545 | 37368 ft | 425 kts | 51° |
| 2026-04-29 16:29 | 52.14507 | -117.42655 | 37359 ft | 424 kts | 51° |
| 2026-04-29 16:30 | 52.17896 | -117.34783 | 37344 ft | 425 kts | 51° |
| 2026-04-29 16:30 | 52.21276 | -117.26957 | 37364 ft | 425 kts | 51° |
| 2026-04-29 16:31 | 52.24684 | -117.19055 | 37359 ft | 426 kts | 51° |
| 2026-04-29 16:31 | 52.28089 | -117.11132 | 37350 ft | 427 kts | 51° |
| 2026-04-29 16:32 | 52.31493 | -117.03186 | 37354 ft | 427 kts | 51° |
| 2026-04-29 16:32 | 52.34894 | -116.95222 | 37343 ft | 427 kts | 51° |
| 2026-04-29 16:33 | 52.39967 | -116.83299 | 37321 ft | 427 kts | 51° |
| 2026-04-29 16:33 | 52.43347 | -116.75321 | 37315 ft | 426 kts | 51° |
| 2026-04-29 16:34 | 52.46724 | -116.67328 | 37300 ft | 426 kts | 51° |
| 2026-04-29 16:34 | 52.50093 | -116.59329 | 37290 ft | 426 kts | 51° |
| 2026-04-29 16:35 | 52.53432 | -116.51374 | 37294 ft | 426 kts | 52° |
| 2026-04-29 16:35 | 52.56789 | -116.43352 | 37281 ft | 426 kts | 52° |
| 2026-04-29 16:36 | 52.60142 | -116.35315 | 37293 ft | 426 kts | 52° |
| 2026-04-29 16:36 | 52.63491 | -116.27264 | 37257 ft | 426 kts | 52° |
| 2026-04-29 16:37 | 52.66811 | -116.19256 | 37267 ft | 426 kts | 52° |
| 2026-04-29 16:37 | 52.69608 | -116.12493 | 37246 ft | 426 kts | 52° |
| 2026-04-29 16:38 | 52.73488 | -116.03088 | 36794 ft | 430 kts | 52° |
| 2026-04-29 16:38 | 52.75161 | -115.99022 | 36273 ft | 427 kts | 52° |
| 2026-04-29 16:38 | 52.76826 | -115.94965 | 35633 ft | 426 kts | 52° |
| 2026-04-29 16:39 | 52.78488 | -115.90910 | 34953 ft | 427 kts | 51° |
| 2026-04-29 16:39 | 52.80153 | -115.86843 | 34262 ft | 428 kts | 51° |
| 2026-04-29 16:39 | 52.81797 | -115.82822 | 33438 ft | 428 kts | 51° |
| 2026-04-29 16:39 | 52.83463 | -115.78740 | 32647 ft | 428 kts | 52° |
| 2026-04-29 16:40 | 52.85124 | -115.74660 | 31861 ft | 427 kts | 52° |
| 2026-04-29 16:40 | 52.86780 | -115.70589 | 31072 ft | 427 kts | 52° |
| 2026-04-29 16:40 | 52.88422 | -115.66541 | 30527 ft | 420 kts | 52° |
| 2026-04-29 16:40 | 52.90042 | -115.62542 | 29874 ft | 415 kts | 52° |
| 2026-04-29 16:41 | 52.91634 | -115.58603 | 29279 ft | 408 kts | 52° |
| 2026-04-29 16:41 | 52.93200 | -115.54727 | 28694 ft | 401 kts | 52° |
| 2026-04-29 16:41 | 52.94719 | -115.50959 | 28122 ft | 395 kts | 52° |
| 2026-04-29 16:41 | 52.96234 | -115.47198 | 27556 ft | 390 kts | 52° |
| 2026-04-29 16:42 | 52.97732 | -115.43477 | 26992 ft | 385 kts | 52° |
| 2026-04-29 16:42 | 52.99209 | -115.39801 | 26421 ft | 381 kts | 52° |
| 2026-04-29 16:42 | 53.00668 | -115.36166 | 25869 ft | 377 kts | 52° |
| 2026-04-29 16:42 | 53.02114 | -115.32559 | 25310 ft | 373 kts | 52° |
| 2026-04-29 16:43 | 53.03544 | -115.28986 | 24767 ft | 370 kts | 52° |
| 2026-04-29 16:43 | 53.04962 | -115.25437 | 24229 ft | 367 kts | 52° |
| 2026-04-29 16:43 | 53.06369 | -115.21911 | 23667 ft | 364 kts | 52° |
| 2026-04-29 16:43 | 53.07745 | -115.18459 | 23073 ft | 362 kts | 52° |
| 2026-04-29 16:44 | 53.09124 | -115.14991 | 22517 ft | 358 kts | 52° |
| 2026-04-29 16:44 | 53.10488 | -115.11557 | 21972 ft | 354 kts | 52° |
| 2026-04-29 16:44 | 53.11836 | -115.08159 | 21423 ft | 351 kts | 52° |
| 2026-04-29 16:44 | 53.13174 | -115.04785 | 20852 ft | 349 kts | 52° |
| 2026-04-29 16:45 | 53.14503 | -115.01426 | 20376 ft | 345 kts | 52° |
| 2026-04-29 16:45 | 53.15820 | -114.98096 | 19818 ft | 344 kts | 52° |
| 2026-04-29 16:45 | 53.17137 | -114.94761 | 19219 ft | 344 kts | 53° |
| 2026-04-29 16:45 | 53.18449 | -114.91432 | 18689 ft | 343 kts | 53° |
| 2026-04-29 16:46 | 53.19737 | -114.88158 | 18103 ft | 342 kts | 53° |
| 2026-04-29 16:46 | 53.21039 | -114.84848 | 17534 ft | 340 kts | 53° |
| 2026-04-29 16:46 | 53.22328 | -114.81562 | 16985 ft | 338 kts | 53° |
| 2026-04-29 16:46 | 53.23615 | -114.78284 | 16333 ft | 339 kts | 53° |
| 2026-04-29 16:47 | 53.24904 | -114.74993 | 15761 ft | 338 kts | 53° |
| 2026-04-29 16:47 | 53.26185 | -114.71717 | 15199 ft | 336 kts | 53° |
| 2026-04-29 16:47 | 53.27251 | -114.68247 | 14659 ft | 340 kts | 70° |
| 2026-04-29 16:47 | 53.27608 | -114.64358 | 14375 ft | 339 kts | 82° |
| 2026-04-29 16:48 | 53.27724 | -114.60436 | 13850 ft | 337 kts | 85° |
| 2026-04-29 16:48 | 53.27783 | -114.56583 | 13294 ft | 335 kts | 85° |
| 2026-04-29 16:48 | 53.27836 | -114.52699 | 12763 ft | 333 kts | 85° |
| 2026-04-29 16:48 | 53.27896 | -114.48852 | 12228 ft | 330 kts | 85° |
| 2026-04-29 16:49 | 53.27964 | -114.45029 | 11712 ft | 328 kts | 84° |
| 2026-04-29 16:49 | 53.28039 | -114.41220 | 11188 ft | 327 kts | 84° |
| 2026-04-29 16:49 | 53.28118 | -114.37435 | 10650 ft | 326 kts | 84° |
| 2026-04-29 16:49 | 53.28195 | -114.33702 | 10393 ft | 315 kts | 84° |
| 2026-04-29 16:50 | 53.28245 | -114.31300 | 10256 ft | 308 kts | 84° |
| 2026-04-29 16:50 | 53.28339 | -114.26691 | 10082 ft | 292 kts | 83° |
| 2026-04-29 16:50 | 53.28409 | -114.23329 | 9703 ft | 288 kts | 83° |
| 2026-04-29 16:50 | 53.28479 | -114.19995 | 9324 ft | 286 kts | 83° |
| 2026-04-29 16:51 | 53.28548 | -114.16691 | 8960 ft | 283 kts | 83° |
| 2026-04-29 16:51 | 53.28615 | -114.13413 | 8594 ft | 281 kts | 83° |
| 2026-04-29 16:51 | 53.28657 | -114.11257 | 8355 ft | 280 kts | 84° |
| 2026-04-29 16:51 | 53.28718 | -114.08059 | 8197 ft | 269 kts | 84° |
| 2026-04-29 16:52 | 53.28764 | -114.04984 | 8072 ft | 261 kts | 88° |
| 2026-04-29 16:52 | 53.27969 | -114.01252 | 7797 ft | 261 kts | 123° |
| 2026-04-29 16:52 | 53.26841 | -113.98868 | 7552 ft | 263 kts | 129° |
| 2026-04-29 16:52 | 53.25653 | -113.96542 | 7290 ft | 263 kts | 129° |
| 2026-04-29 16:53 | 53.24479 | -113.94226 | 7025 ft | 260 kts | 128° |
| 2026-04-29 16:53 | 53.23711 | -113.92697 | 6851 ft | 259 kts | 128° |
| 2026-04-29 16:53 | 53.22565 | -113.90395 | 6589 ft | 257 kts | 128° |
| 2026-04-29 16:53 | 53.21433 | -113.88114 | 6322 ft | 254 kts | 128° |
| 2026-04-29 16:54 | 53.20386 | -113.85765 | 6058 ft | 251 kts | 123° |
| 2026-04-29 16:54 | 53.19410 | -113.83395 | 5836 ft | 244 kts | 123° |
| 2026-04-29 16:54 | 53.18170 | -113.80391 | 5513 ft | 231 kts | 123° |
| 2026-04-29 16:54 | 53.17585 | -113.78905 | 5354 ft | 223 kts | 115° |
| 2026-04-29 16:55 | 53.17357 | -113.76492 | 5110 ft | 209 kts | 71° |
| 2026-04-29 16:55 | 53.18135 | -113.74621 | 5045 ft | 189 kts | 32° |
| 2026-04-29 16:55 | 53.19164 | -113.73438 | 5018 ft | 177 kts | 32° |
| 2026-04-29 16:55 | 53.20165 | -113.72236 | 4972 ft | 179 kts | 32° |
| 2026-04-29 16:56 | 53.21176 | -113.71037 | 4771 ft | 178 kts | 31° |
| 2026-04-29 16:56 | 53.22184 | -113.69855 | 4533 ft | 175 kts | 31° |
| 2026-04-29 16:56 | 53.23127 | -113.68745 | 4321 ft | 156 kts | 31° |
| 2026-04-29 16:56 | 53.23963 | -113.67761 | 4096 ft | 140 kts | 31° |
| 2026-04-29 16:57 | 53.24728 | -113.66859 | 3909 ft | 130 kts | 32° |
| 2026-04-29 16:57 | 53.25473 | -113.65989 | 3759 ft | 133 kts | 32° |
| 2026-04-29 16:57 | 53.26241 | -113.65086 | 3587 ft | 137 kts | 33° |
| 2026-04-29 16:57 | 53.27011 | -113.64182 | 3393 ft | 137 kts | 33° |
| 2026-04-29 16:58 | 53.27780 | -113.63246 | 3168 ft | 137 kts | 36° |
| 2026-04-29 16:58 | 53.28547 | -113.62305 | 2965 ft | 136 kts | 32° |
| 2026-04-29 16:58 | 53.29342 | -113.61409 | 2781 ft | 140 kts | 33° |
| 2026-04-29 16:58 | 53.30141 | -113.60497 | 2610 ft | 138 kts | 35° |
| 2026-04-29 16:59 | 53.30920 | -113.59585 | 2424 ft | 136 kts | 34° |
| 2026-04-29 16:59 | 53.31638 | -113.58746 | 2385 ft | 102 kts | 35° |
| 2026-04-29 16:59 | 53.32052 | -113.58263 | 2384 ft | 52 kts | 35° |
| 2026-04-29 16:59 | 53.32197 | -113.58089 | 2384 ft | 16 kts | 38° |
| 2026-04-29 17:00 | 53.32232 | -113.57940 | 2383 ft | 11 kts | 80° |
| 2026-04-29 17:00 | 53.32238 | -113.57880 | 2383 ft | 1 kts | 79° |
| 2026-04-29 17:01 | 53.32238 | -113.57878 | 2383 ft | 1 kts | 80° |
| 2026-04-29 17:01 | 53.32241 | -113.57850 | 2383 ft | 4 kts | 79° |
| 2026-04-29 17:02 | 53.32249 | -113.57780 | 2383 ft | 8 kts | 80° |
| 2026-04-29 17:02 | 53.32247 | -113.57679 | 2383 ft | 9 kts | 125° |
| 2026-04-29 17:02 | 53.32192 | -113.57687 | 2385 ft | 9 kts | 217° |
| 2026-04-29 17:02 | 53.32141 | -113.57746 | 2383 ft | 9 kts | 214° |
| 2026-04-29 17:03 | 53.32077 | -113.57823 | 2383 ft | 15 kts | 215° |
| 2026-04-29 17:03 | 53.31972 | -113.57943 | 2383 ft | 20 kts | 214° |
| 2026-04-29 17:03 | 53.31858 | -113.58077 | 2384 ft | 20 kts | 214° |
| 2026-04-29 17:03 | 53.31747 | -113.58206 | 2386 ft | 18 kts | 215° |
| 2026-04-29 17:04 | 53.31652 | -113.58317 | 2383 ft | 16 kts | 215° |
| 2026-04-29 17:04 | 53.31560 | -113.58425 | 2387 ft | 16 kts | 214° |
| 2026-04-29 17:04 | 53.31472 | -113.58528 | 2383 ft | 15 kts | 214° |
| 2026-04-29 17:04 | 53.31387 | -113.58627 | 2385 ft | 15 kts | 215° |
| 2026-04-29 17:05 | 53.31309 | -113.58718 | 2383 ft | 13 kts | 215° |
| 2026-04-29 17:05 | 53.31235 | -113.58805 | 2389 ft | 13 kts | 215° |
| 2026-04-29 17:05 | 53.31163 | -113.58889 | 2383 ft | 13 kts | 214° |
| 2026-04-29 17:05 | 53.31085 | -113.58943 | 2386 ft | 12 kts | 182° |
| 2026-04-29 17:06 | 53.31003 | -113.58931 | 2383 ft | 12 kts | 173° |
| 2026-04-29 17:06 | 53.30923 | -113.58918 | 2385 ft | 11 kts | 178° |
| 2026-04-29 17:06 | 53.30844 | -113.58907 | 2383 ft | 11 kts | 167° |
| 2026-04-29 17:06 | 53.30770 | -113.58881 | 2383 ft | 11 kts | 172° |
| 2026-04-29 17:07 | 53.30696 | -113.58872 | 2383 ft | 11 kts | 176° |
| 2026-04-29 17:07 | 53.30618 | -113.58844 | 2383 ft | 12 kts | 139° |
| 2026-04-29 17:07 | 53.30599 | -113.58713 | 2383 ft | 12 kts | 96° |
| 2026-04-29 17:07 | 53.30555 | -113.58604 | 2383 ft | 11 kts | 135° |
| 2026-04-29 17:08 | 53.30502 | -113.58516 | 2383 ft | 10 kts | 135° |
| 2026-04-29 17:08 | 53.30455 | -113.58437 | 2385 ft | 8 kts | 135° |
| 2026-04-29 17:08 | 53.30431 | -113.58393 | 2385 ft | 4 kts | 118° |
| 2026-04-29 17:08 | 53.30448 | -113.58359 | 2383 ft | 4 kts | 26° |
| 2026-04-29 17:09 | 53.30471 | -113.58329 | 2383 ft | 4 kts | 43° |
| 2026-04-29 17:09 | 53.30490 | -113.58298 | 2386 ft | 3 kts | 45° |
| 2026-04-29 17:09 | 53.30496 | -113.58288 | 2385 ft | 0 kts | 45° |